South Rome, Illinois
Current Conditions -  °F | °C
As of 1:55 PM on Sunday 21 Dec 2014 (Local Time) from KC75 Reporting Station
Overcast Overcast  
Wind Chill: 29°   Ceiling: 2500
Heat Index: 38°   Visibility: 10mi
Dew Point: 30°   Wind: 14mph
Humidity: 74%   Direction: 160°SSE
Pressure: 30.05"   Gusts: NA
Location:  40.915°N, 89.5303°W
Report Text: KC75 211955Z AUTO 16012KT 10SM OVC025 03/M01 A3005 RMK AO2 T00321010
Loading
Personal Weather Stations






























Interactive Weather Map New forecast layout! Learn more

10-Day Weather Forecast

Advertisements
Track Severe Weather on mobile